sensor_id;sensor_type;location;lat;lon;timestamp;P1;durP1;ratioP1;P2;durP2;ratioP2
49252;SDS011;35103;47.952;-1.502;2022-10-26T00:00:46;438.83;;;407.17;;
49252;SDS011;35103;47.952;-1.502;2022-10-26T00:03:12;572.88;;;524.28;;
49252;SDS011;35103;47.952;-1.502;2022-10-26T00:05:38;517.75;;;475.52;;
49252;SDS011;35103;47.952;-1.502;2022-10-26T00:08:05;471.60;;;435.58;;
49252;SDS011;35103;47.952;-1.502;2022-10-26T00:10:35;559.22;;;512.65;;
49252;SDS011;35103;47.952;-1.502;2022-10-26T00:13:02;532.50;;;486.35;;
49252;SDS011;35103;47.952;-1.502;2022-10-26T00:15:29;471.88;;;436.10;;
49252;SDS011;35103;47.952;-1.502;2022-10-26T00:17:54;691.05;;;625.67;;
49252;SDS011;35103;47.952;-1.502;2022-10-26T00:20:20;562.53;;;514.00;;
49252;SDS011;35103;47.952;-1.502;2022-10-26T00:22:46;613.08;;;559.60;;
49252;SDS011;35103;47.952;-1.502;2022-10-26T00:25:11;418.65;;;388.75;;
49252;SDS011;35103;47.952;-1.502;2022-10-26T00:27:37;385.33;;;359.90;;
49252;SDS011;35103;47.952;-1.502;2022-10-26T00:30:03;392.20;;;363.70;;
49252;SDS011;35103;47.952;-1.502;2022-10-26T00:32:30;532.45;;;490.90;;
49252;SDS011;35103;47.952;-1.502;2022-10-26T00:34:56;477.13;;;441.70;;
49252;SDS011;35103;47.952;-1.502;2022-10-26T00:37:21;515.80;;;474.30;;
49252;SDS011;35103;47.952;-1.502;2022-10-26T00:39:47;401.73;;;373.27;;
49252;SDS011;35103;47.952;-1.502;2022-10-26T00:42:21;482.00;;;444.15;;
49252;SDS011;35103;47.952;-1.502;2022-10-26T00:47:27;411.98;;;382.33;;
49252;SDS011;35103;47.952;-1.502;2022-10-26T00:50:02;450.90;;;417.88;;
49252;SDS011;35103;47.952;-1.502;2022-10-26T00:52:37;637.28;;;582.30;;
49252;SDS011;35103;47.952;-1.502;2022-10-26T00:55:04;553.53;;;505.23;;
49252;SDS011;35103;47.952;-1.502;2022-10-26T00:57:30;588.05;;;538.47;;
49252;SDS011;35103;47.952;-1.502;2022-10-26T00:59:56;875.53;;;781.55;;
49252;SDS011;35103;47.952;-1.502;2022-10-26T01:02:23;850.45;;;732.35;;
49252;SDS011;35103;47.952;-1.502;2022-10-26T01:04:49;676.28;;;613.75;;
49252;SDS011;35103;47.952;-1.502;2022-10-26T01:07:16;543.10;;;496.42;;
49252;SDS011;35103;47.952;-1.502;2022-10-26T01:09:42;1024.30;;;727.08;;
49252;SDS011;35103;47.952;-1.502;2022-10-26T01:12:07;544.65;;;501.65;;
49252;SDS011;35103;47.952;-1.502;2022-10-26T01:14:33;702.30;;;639.33;;
49252;SDS011;35103;47.952;-1.502;2022-10-26T01:17:42;986.15;;;806.47;;
49252;SDS011;35103;47.952;-1.502;2022-10-26T01:25:38;559.65;;;514.97;;
49252;SDS011;35103;47.952;-1.502;2022-10-26T01:31:17;725.65;;;658.70;;
49252;SDS011;35103;47.952;-1.502;2022-10-26T01:33:52;835.53;;;749.55;;
49252;SDS011;35103;47.952;-1.502;2022-10-26T01:36:28;579.13;;;532.08;;
49252;SDS011;35103;47.952;-1.502;2022-10-26T01:39:08;578.28;;;531.03;;
49252;SDS011;35103;47.952;-1.502;2022-10-26T01:41:45;576.53;;;529.17;;
49252;SDS011;35103;47.952;-1.502;2022-10-26T01:44:15;627.58;;;573.47;;
49252;SDS011;35103;47.952;-1.502;2022-10-26T01:46:42;561.58;;;516.70;;
49252;SDS011;35103;47.952;-1.502;2022-10-26T01:49:11;553.00;;;509.90;;
49252;SDS011;35103;47.952;-1.502;2022-10-26T01:51:39;606.38;;;554.50;;
49252;SDS011;35103;47.952;-1.502;2022-10-26T01:54:07;722.80;;;651.13;;
49252;SDS011;35103;47.952;-1.502;2022-10-26T01:56:35;457.23;;;423.30;;
49252;SDS011;35103;47.952;-1.502;2022-10-26T02:02:09;664.47;;;604.83;;
49252;SDS011;35103;47.952;-1.502;2022-10-26T02:04:44;538.22;;;494.73;;
49252;SDS011;35103;47.952;-1.502;2022-10-26T02:07:53;613.42;;;560.88;;
49252;SDS011;35103;47.952;-1.502;2022-10-26T02:10:41;379.55;;;353.40;;
49252;SDS011;35103;47.952;-1.502;2022-10-26T02:18:30;419.25;;;388.08;;
49252;SDS011;35103;47.952;-1.502;2022-10-26T02:21:02;571.20;;;523.90;;
49252;SDS011;35103;47.952;-1.502;2022-10-26T02:23:32;379.02;;;351.80;;
49252;SDS011;35103;47.952;-1.502;2022-10-26T02:26:01;495.73;;;456.25;;
49252;SDS011;35103;47.952;-1.502;2022-10-26T02:28:32;516.22;;;475.60;;
49252;SDS011;35103;47.952;-1.502;2022-10-26T02:31:03;537.58;;;495.52;;
49252;SDS011;35103;47.952;-1.502;2022-10-26T02:33:39;475.38;;;440.08;;
49252;SDS011;35103;47.952;-1.502;2022-10-26T02:36:09;536.10;;;492.08;;
49252;SDS011;35103;47.952;-1.502;2022-10-26T02:38:39;488.15;;;450.85;;
49252;SDS011;35103;47.952;-1.502;2022-10-26T02:41:06;365.92;;;340.90;;
49252;SDS011;35103;47.952;-1.502;2022-10-26T02:43:35;550.45;;;505.83;;
49252;SDS011;35103;47.952;-1.502;2022-10-26T02:46:11;592.85;;;543.00;;
49252;SDS011;35103;47.952;-1.502;2022-10-26T02:48:41;533.72;;;493.13;;
49252;SDS011;35103;47.952;-1.502;2022-10-26T02:53:58;407.83;;;379.38;;
49252;SDS011;35103;47.952;-1.502;2022-10-26T02:56:47;474.02;;;438.48;;
49252;SDS011;35103;47.952;-1.502;2022-10-26T02:59:22;448.15;;;415.90;;
49252;SDS011;35103;47.952;-1.502;2022-10-26T03:01:51;435.20;;;403.02;;
49252;SDS011;35103;47.952;-1.502;2022-10-26T03:04:18;426.20;;;395.80;;
49252;SDS011;35103;47.952;-1.502;2022-10-26T03:06:53;458.92;;;424.17;;
49252;SDS011;35103;47.952;-1.502;2022-10-26T03:09:19;474.83;;;439.15;;
49252;SDS011;35103;47.952;-1.502;2022-10-26T03:11:44;515.55;;;474.92;;
49252;SDS011;35103;47.952;-1.502;2022-10-26T03:14:10;451.52;;;418.35;;
49252;SDS011;35103;47.952;-1.502;2022-10-26T03:16:36;429.65;;;398.52;;
49252;SDS011;35103;47.952;-1.502;2022-10-26T03:19:01;547.90;;;504.33;;
49252;SDS011;35103;47.952;-1.502;2022-10-26T03:21:27;455.90;;;423.05;;
49252;SDS011;35103;47.952;-1.502;2022-10-26T03:23:52;623.83;;;572.20;;
49252;SDS011;35103;47.952;-1.502;2022-10-26T03:26:18;408.90;;;381.15;;
49252;SDS011;35103;47.952;-1.502;2022-10-26T03:28:44;421.13;;;390.40;;
49252;SDS011;35103;47.952;-1.502;2022-10-26T03:31:10;493.77;;;456.90;;
49252;SDS011;35103;47.952;-1.502;2022-10-26T03:33:35;413.92;;;385.63;;
49252;SDS011;35103;47.952;-1.502;2022-10-26T03:36:01;436.02;;;403.70;;
49252;SDS011;35103;47.952;-1.502;2022-10-26T03:38:27;492.30;;;453.67;;
49252;SDS011;35103;47.952;-1.502;2022-10-26T03:40:52;441.08;;;409.08;;
49252;SDS011;35103;47.952;-1.502;2022-10-26T03:43:18;424.13;;;393.10;;
49252;SDS011;35103;47.952;-1.502;2022-10-26T03:45:43;517.65;;;476.20;;
49252;SDS011;35103;47.952;-1.502;2022-10-26T03:48:09;538.55;;;496.52;;
49252;SDS011;35103;47.952;-1.502;2022-10-26T03:50:34;395.63;;;367.83;;
49252;SDS011;35103;47.952;-1.502;2022-10-26T03:53:00;443.23;;;410.55;;
49252;SDS011;35103;47.952;-1.502;2022-10-26T03:55:26;460.42;;;425.83;;
49252;SDS011;35103;47.952;-1.502;2022-10-26T03:57:51;523.38;;;482.13;;
49252;SDS011;35103;47.952;-1.502;2022-10-26T04:00:17;490.00;;;452.02;;
49252;SDS011;35103;47.952;-1.502;2022-10-26T04:02:43;414.95;;;384.92;;
49252;SDS011;35103;47.952;-1.502;2022-10-26T04:05:10;426.48;;;395.50;;
49252;SDS011;35103;47.952;-1.502;2022-10-26T04:07:35;449.58;;;415.75;;
49252;SDS011;35103;47.952;-1.502;2022-10-26T04:10:01;452.33;;;417.52;;
49252;SDS011;35103;47.952;-1.502;2022-10-26T04:12:26;480.45;;;445.02;;
49252;SDS011;35103;47.952;-1.502;2022-10-26T04:14:52;520.45;;;479.15;;
49252;SDS011;35103;47.952;-1.502;2022-10-26T04:17:17;469.90;;;434.17;;
49252;SDS011;35103;47.952;-1.502;2022-10-26T04:19:43;462.67;;;428.50;;
49252;SDS011;35103;47.952;-1.502;2022-10-26T04:22:08;630.42;;;581.70;;
49252;SDS011;35103;47.952;-1.502;2022-10-26T04:24:34;572.92;;;527.88;;
49252;SDS011;35103;47.952;-1.502;2022-10-26T04:26:59;485.80;;;450.10;;
49252;SDS011;35103;47.952;-1.502;2022-10-26T04:29:25;464.02;;;430.23;;
49252;SDS011;35103;47.952;-1.502;2022-10-26T04:31:50;535.38;;;492.80;;
49252;SDS011;35103;47.952;-1.502;2022-10-26T04:34:16;593.55;;;546.40;;
49252;SDS011;35103;47.952;-1.502;2022-10-26T04:36:41;512.78;;;472.27;;
49252;SDS011;35103;47.952;-1.502;2022-10-26T04:39:07;443.92;;;412.17;;
49252;SDS011;35103;47.952;-1.502;2022-10-26T04:41:33;580.67;;;536.00;;
49252;SDS011;35103;47.952;-1.502;2022-10-26T04:43:58;468.33;;;433.02;;
49252;SDS011;35103;47.952;-1.502;2022-10-26T04:46:24;506.77;;;467.20;;
49252;SDS011;35103;47.952;-1.502;2022-10-26T04:48:49;535.88;;;495.52;;
49252;SDS011;35103;47.952;-1.502;2022-10-26T04:51:15;600.53;;;552.72;;
49252;SDS011;35103;47.952;-1.502;2022-10-26T04:53:40;601.28;;;552.10;;
49252;SDS011;35103;47.952;-1.502;2022-10-26T04:56:06;454.65;;;422.58;;
49252;SDS011;35103;47.952;-1.502;2022-10-26T04:58:32;551.58;;;509.10;;
49252;SDS011;35103;47.952;-1.502;2022-10-26T05:00:59;546.03;;;504.75;;
49252;SDS011;35103;47.952;-1.502;2022-10-26T05:03:26;679.05;;;622.13;;
49252;SDS011;35103;47.952;-1.502;2022-10-26T05:05:51;713.80;;;654.28;;
49252;SDS011;35103;47.952;-1.502;2022-10-26T05:08:17;571.08;;;527.25;;
49252;SDS011;35103;47.952;-1.502;2022-10-26T05:10:46;688.17;;;629.63;;
49252;SDS011;35103;47.952;-1.502;2022-10-26T05:13:12;639.33;;;588.65;;
49252;SDS011;35103;47.952;-1.502;2022-10-26T05:15:38;561.47;;;518.85;;
49252;SDS011;35103;47.952;-1.502;2022-10-26T05:18:04;552.67;;;510.80;;
49252;SDS011;35103;47.952;-1.502;2022-10-26T05:20:30;580.63;;;534.53;;
49252;SDS011;35103;47.952;-1.502;2022-10-26T05:22:57;690.42;;;631.45;;
49252;SDS011;35103;47.952;-1.502;2022-10-26T05:25:24;509.75;;;472.15;;
49252;SDS011;35103;47.952;-1.502;2022-10-26T05:27:50;583.58;;;538.90;;
49252;SDS011;35103;47.952;-1.502;2022-10-26T05:30:16;749.70;;;686.03;;
49252;SDS011;35103;47.952;-1.502;2022-10-26T05:32:41;473.40;;;437.73;;
49252;SDS011;35103;47.952;-1.502;2022-10-26T05:35:07;541.83;;;499.98;;
49252;SDS011;35103;47.952;-1.502;2022-10-26T05:37:33;552.25;;;509.88;;
49252;SDS011;35103;47.952;-1.502;2022-10-26T05:39:58;605.55;;;557.25;;
49252;SDS011;35103;47.952;-1.502;2022-10-26T05:42:24;573.47;;;529.92;;
49252;SDS011;35103;47.952;-1.502;2022-10-26T05:44:49;740.58;;;680.92;;
49252;SDS011;35103;47.952;-1.502;2022-10-26T05:47:15;529.92;;;489.52;;
49252;SDS011;35103;47.952;-1.502;2022-10-26T05:49:40;515.50;;;476.60;;
49252;SDS011;35103;47.952;-1.502;2022-10-26T05:52:06;590.03;;;544.03;;
49252;SDS011;35103;47.952;-1.502;2022-10-26T05:54:32;632.63;;;581.90;;
49252;SDS011;35103;47.952;-1.502;2022-10-26T05:56:57;540.65;;;499.60;;
49252;SDS011;35103;47.952;-1.502;2022-10-26T05:59:23;496.70;;;460.15;;
49252;SDS011;35103;47.952;-1.502;2022-10-26T06:02:04;529.90;;;489.60;;
49252;SDS011;35103;47.952;-1.502;2022-10-26T06:04:49;597.72;;;548.00;;
49252;SDS011;35103;47.952;-1.502;2022-10-26T06:07:16;616.20;;;566.67;;
49252;SDS011;35103;47.952;-1.502;2022-10-26T06:09:42;558.17;;;516.90;;
49252;SDS011;35103;47.952;-1.502;2022-10-26T06:12:09;615.63;;;568.63;;
49252;SDS011;35103;47.952;-1.502;2022-10-26T06:14:35;633.05;;;582.33;;
49252;SDS011;35103;47.952;-1.502;2022-10-26T06:25:15;551.28;;;510.77;;
49252;SDS011;35103;47.952;-1.502;2022-10-26T06:30:43;594.75;;;547.92;;
49252;SDS011;35103;47.952;-1.502;2022-10-26T06:33:09;485.83;;;448.50;;
49252;SDS011;35103;47.952;-1.502;2022-10-26T06:38:07;654.25;;;602.17;;
49252;SDS011;35103;47.952;-1.502;2022-10-26T06:40:37;648.00;;;596.25;;
49252;SDS011;35103;47.952;-1.502;2022-10-26T06:43:11;535.15;;;495.48;;
49252;SDS011;35103;47.952;-1.502;2022-10-26T06:45:44;523.42;;;484.05;;
49252;SDS011;35103;47.952;-1.502;2022-10-26T06:48:14;505.67;;;467.90;;
49252;SDS011;35103;47.952;-1.502;2022-10-26T06:50:46;577.15;;;533.67;;
49252;SDS011;35103;47.952;-1.502;2022-10-26T06:55:50;592.45;;;546.72;;
49252;SDS011;35103;47.952;-1.502;2022-10-26T06:58:16;595.30;;;547.50;;
49252;SDS011;35103;47.952;-1.502;2022-10-26T07:00:44;623.83;;;575.65;;
49252;SDS011;35103;47.952;-1.502;2022-10-26T07:03:12;653.10;;;599.70;;
49252;SDS011;35103;47.952;-1.502;2022-10-26T07:05:38;723.45;;;663.80;;
49252;SDS011;35103;47.952;-1.502;2022-10-26T07:08:03;664.70;;;611.25;;
49252;SDS011;35103;47.952;-1.502;2022-10-26T07:10:29;600.45;;;553.47;;
49252;SDS011;35103;47.952;-1.502;2022-10-26T07:12:55;653.47;;;599.83;;
49252;SDS011;35103;47.952;-1.502;2022-10-26T07:15:21;698.22;;;639.20;;
49252;SDS011;35103;47.952;-1.502;2022-10-26T07:17:47;685.70;;;626.10;;
49252;SDS011;35103;47.952;-1.502;2022-10-26T07:20:14;696.25;;;638.83;;
49252;SDS011;35103;47.952;-1.502;2022-10-26T07:22:41;712.17;;;650.10;;
49252;SDS011;35103;47.952;-1.502;2022-10-26T07:25:07;713.38;;;653.75;;
49252;SDS011;35103;47.952;-1.502;2022-10-26T07:27:33;645.53;;;594.08;;
49252;SDS011;35103;47.952;-1.502;2022-10-26T07:29:59;641.22;;;588.97;;
49252;SDS011;35103;47.952;-1.502;2022-10-26T07:32:24;571.78;;;528.28;;
49252;SDS011;35103;47.952;-1.502;2022-10-26T07:34:50;712.25;;;654.15;;
49252;SDS011;35103;47.952;-1.502;2022-10-26T07:37:15;643.38;;;591.65;;
49252;SDS011;35103;47.952;-1.502;2022-10-26T07:39:41;589.58;;;543.08;;
49252;SDS011;35103;47.952;-1.502;2022-10-26T07:42:06;523.03;;;482.77;;
49252;SDS011;35103;47.952;-1.502;2022-10-26T07:44:32;682.40;;;624.40;;
49252;SDS011;35103;47.952;-1.502;2022-10-26T07:46:57;547.35;;;505.95;;
49252;SDS011;35103;47.952;-1.502;2022-10-26T07:49:23;629.53;;;581.03;;
49252;SDS011;35103;47.952;-1.502;2022-10-26T07:51:48;602.83;;;555.75;;
49252;SDS011;35103;47.952;-1.502;2022-10-26T07:54:14;567.47;;;523.55;;
49252;SDS011;35103;47.952;-1.502;2022-10-26T07:56:39;638.92;;;585.90;;
49252;SDS011;35103;47.952;-1.502;2022-10-26T07:59:05;578.55;;;532.10;;
49252;SDS011;35103;47.952;-1.502;2022-10-26T08:01:30;600.55;;;554.33;;
49252;SDS011;35103;47.952;-1.502;2022-10-26T08:03:56;564.67;;;521.38;;
49252;SDS011;35103;47.952;-1.502;2022-10-26T08:06:22;644.58;;;592.83;;
49252;SDS011;35103;47.952;-1.502;2022-10-26T08:08:48;648.00;;;596.65;;
49252;SDS011;35103;47.952;-1.502;2022-10-26T08:11:14;573.13;;;528.05;;
49252;SDS011;35103;47.952;-1.502;2022-10-26T08:13:41;686.83;;;628.28;;
49252;SDS011;35103;47.952;-1.502;2022-10-26T08:16:06;712.47;;;651.75;;
49252;SDS011;35103;47.952;-1.502;2022-10-26T08:18:33;737.65;;;676.35;;
49252;SDS011;35103;47.952;-1.502;2022-10-26T08:21:03;686.15;;;630.80;;
49252;SDS011;35103;47.952;-1.502;2022-10-26T08:23:34;778.88;;;714.53;;
49252;SDS011;35103;47.952;-1.502;2022-10-26T08:26:00;658.10;;;607.35;;
49252;SDS011;35103;47.952;-1.502;2022-10-26T08:28:26;724.95;;;665.42;;
49252;SDS011;35103;47.952;-1.502;2022-10-26T08:30:53;587.33;;;544.22;;
49252;SDS011;35103;47.952;-1.502;2022-10-26T08:33:19;685.08;;;631.03;;
49252;SDS011;35103;47.952;-1.502;2022-10-26T08:35:45;728.95;;;669.28;;
49252;SDS011;35103;47.952;-1.502;2022-10-26T08:38:10;716.42;;;657.55;;
49252;SDS011;35103;47.952;-1.502;2022-10-26T08:40:37;757.67;;;690.97;;
49252;SDS011;35103;47.952;-1.502;2022-10-26T08:45:40;666.58;;;614.38;;
49252;SDS011;35103;47.952;-1.502;2022-10-26T08:48:20;739.35;;;678.38;;
49252;SDS011;35103;47.952;-1.502;2022-10-26T08:50:51;704.55;;;648.10;;
49252;SDS011;35103;47.952;-1.502;2022-10-26T08:53:34;641.35;;;592.25;;
49252;SDS011;35103;47.952;-1.502;2022-10-26T08:56:13;675.23;;;622.17;;
49252;SDS011;35103;47.952;-1.502;2022-10-26T08:59:05;629.08;;;580.75;;
49252;SDS011;35103;47.952;-1.502;2022-10-26T09:01:47;734.10;;;676.38;;
49252;SDS011;35103;47.952;-1.502;2022-10-26T09:04:13;701.63;;;646.25;;
49252;SDS011;35103;47.952;-1.502;2022-10-26T09:09:54;672.40;;;617.78;;
49252;SDS011;35103;47.952;-1.502;2022-10-26T09:20:53;723.53;;;659.80;;
49252;SDS011;35103;47.952;-1.502;2022-10-26T09:25:58;710.97;;;653.70;;
49252;SDS011;35103;47.952;-1.502;2022-10-26T09:28:26;687.95;;;634.53;;
49252;SDS011;35103;47.952;-1.502;2022-10-26T09:30:58;674.80;;;620.35;;
49252;SDS011;35103;47.952;-1.502;2022-10-26T09:33:25;653.95;;;599.28;;
49252;SDS011;35103;47.952;-1.502;2022-10-26T09:35:51;662.90;;;600.10;;
49252;SDS011;35103;47.952;-1.502;2022-10-26T09:38:29;619.47;;;571.83;;
49252;SDS011;35103;47.952;-1.502;2022-10-26T09:45:51;675.92;;;622.65;;
49252;SDS011;35103;47.952;-1.502;2022-10-26T09:51:03;592.63;;;547.60;;
49252;SDS011;35103;47.952;-1.502;2022-10-26T09:53:29;651.22;;;597.58;;
49252;SDS011;35103;47.952;-1.502;2022-10-26T09:56:05;639.50;;;586.58;;
49252;SDS011;35103;47.952;-1.502;2022-10-26T09:58:35;756.08;;;682.45;;
49252;SDS011;35103;47.952;-1.502;2022-10-26T10:01:20;593.92;;;547.78;;
49252;SDS011;35103;47.952;-1.502;2022-10-26T10:06:36;789.50;;;688.55;;
49252;SDS011;35103;47.952;-1.502;2022-10-26T10:09:12;938.20;;;790.55;;
49252;SDS011;35103;47.952;-1.502;2022-10-26T10:14:14;614.30;;;563.17;;
49252;SDS011;35103;47.952;-1.502;2022-10-26T10:16:41;745.28;;;671.65;;
49252;SDS011;35103;47.952;-1.502;2022-10-26T10:19:28;741.90;;;667.30;;
49252;SDS011;35103;47.952;-1.502;2022-10-26T10:21:56;590.47;;;542.13;;
49252;SDS011;35103;47.952;-1.502;2022-10-26T10:24:30;524.25;;;484.75;;
49252;SDS011;35103;47.952;-1.502;2022-10-26T10:26:58;574.72;;;529.83;;
49252;SDS011;35103;47.952;-1.502;2022-10-26T10:29:38;629.75;;;577.85;;
49252;SDS011;35103;47.952;-1.502;2022-10-26T10:32:10;629.55;;;577.75;;
49252;SDS011;35103;47.952;-1.502;2022-10-26T10:34:39;566.60;;;521.13;;
49252;SDS011;35103;47.952;-1.502;2022-10-26T10:37:05;616.10;;;560.45;;
49252;SDS011;35103;47.952;-1.502;2022-10-26T10:39:34;884.20;;;784.42;;
49252;SDS011;35103;47.952;-1.502;2022-10-26T10:42:03;551.53;;;510.23;;
49252;SDS011;35103;47.952;-1.502;2022-10-26T10:44:31;597.05;;;548.45;;
49252;SDS011;35103;47.952;-1.502;2022-10-26T10:47:04;652.90;;;596.67;;
49252;SDS011;35103;47.952;-1.502;2022-10-26T10:49:31;639.45;;;583.53;;
49252;SDS011;35103;47.952;-1.502;2022-10-26T10:51:58;607.28;;;558.63;;
49252;SDS011;35103;47.952;-1.502;2022-10-26T10:54:34;623.30;;;570.08;;
49252;SDS011;35103;47.952;-1.502;2022-10-26T11:05:19;627.10;;;577.38;;
49252;SDS011;35103;47.952;-1.502;2022-10-26T11:08:01;548.72;;;506.05;;
49252;SDS011;35103;47.952;-1.502;2022-10-26T11:10:37;520.17;;;482.15;;
49252;SDS011;35103;47.952;-1.502;2022-10-26T11:13:15;539.22;;;496.98;;
49252;SDS011;35103;47.952;-1.502;2022-10-26T11:16:03;605.90;;;553.70;;
49252;SDS011;35103;47.952;-1.502;2022-10-26T11:21:28;621.47;;;569.90;;
49252;SDS011;35103;47.952;-1.502;2022-10-26T11:26:52;529.45;;;488.25;;
49252;SDS011;35103;47.952;-1.502;2022-10-26T11:29:30;600.83;;;552.30;;
49252;SDS011;35103;47.952;-1.502;2022-10-26T11:31:57;706.83;;;630.55;;
49252;SDS011;35103;47.952;-1.502;2022-10-26T11:42:49;662.30;;;600.65;;
49252;SDS011;35103;47.952;-1.502;2022-10-26T11:45:22;828.33;;;742.78;;
49252;SDS011;35103;47.952;-1.502;2022-10-26T11:47:59;709.97;;;637.13;;
49252;SDS011;35103;47.952;-1.502;2022-10-26T11:50:46;568.60;;;521.80;;
49252;SDS011;35103;47.952;-1.502;2022-10-26T11:53:18;514.10;;;474.42;;
49252;SDS011;35103;47.952;-1.502;2022-10-26T11:55:49;589.78;;;539.10;;
49252;SDS011;35103;47.952;-1.502;2022-10-26T11:58:17;603.53;;;553.55;;
49252;SDS011;35103;47.952;-1.502;2022-10-26T12:03:46;577.53;;;525.90;;
49252;SDS011;35103;47.952;-1.502;2022-10-26T12:06:17;612.28;;;560.75;;
49252;SDS011;35103;47.952;-1.502;2022-10-26T12:08:47;545.45;;;500.38;;
49252;SDS011;35103;47.952;-1.502;2022-10-26T12:12:03;593.13;;;543.20;;
49252;SDS011;35103;47.952;-1.502;2022-10-26T12:14:38;596.38;;;545.78;;
49252;SDS011;35103;47.952;-1.502;2022-10-26T12:17:19;545.42;;;500.90;;
49252;SDS011;35103;47.952;-1.502;2022-10-26T12:19:54;598.90;;;548.10;;
49252;SDS011;35103;47.952;-1.502;2022-10-26T12:22:49;462.13;;;426.83;;
49252;SDS011;35103;47.952;-1.502;2022-10-26T12:30:14;620.80;;;566.60;;
49252;SDS011;35103;47.952;-1.502;2022-10-26T12:41:07;547.33;;;503.55;;
49252;SDS011;35103;47.952;-1.502;2022-10-26T12:43:41;616.88;;;566.72;;
49252;SDS011;35103;47.952;-1.502;2022-10-26T12:48:42;651.55;;;594.85;;
49252;SDS011;35103;47.952;-1.502;2022-10-26T12:51:37;729.88;;;657.97;;
49252;SDS011;35103;47.952;-1.502;2022-10-26T12:59:04;575.63;;;530.30;;
49252;SDS011;35103;47.952;-1.502;2022-10-26T13:04:28;560.08;;;512.58;;
49252;SDS011;35103;47.952;-1.502;2022-10-26T13:09:39;531.17;;;489.55;;
49252;SDS011;35103;47.952;-1.502;2022-10-26T13:12:10;622.85;;;566.88;;
49252;SDS011;35103;47.952;-1.502;2022-10-26T13:14:37;616.22;;;564.25;;
49252;SDS011;35103;47.952;-1.502;2022-10-26T13:17:31;837.30;;;756.58;;
49252;SDS011;35103;47.952;-1.502;2022-10-26T13:20:03;730.45;;;664.78;;
49252;SDS011;35103;47.952;-1.502;2022-10-26T13:22:30;589.08;;;542.22;;
49252;SDS011;35103;47.952;-1.502;2022-10-26T13:25:00;632.20;;;580.80;;
49252;SDS011;35103;47.952;-1.502;2022-10-26T13:32:32;672.88;;;618.40;;
49252;SDS011;35103;47.952;-1.502;2022-10-26T13:35:00;699.20;;;638.10;;
49252;SDS011;35103;47.952;-1.502;2022-10-26T13:37:28;694.83;;;637.30;;
49252;SDS011;35103;47.952;-1.502;2022-10-26T13:39:56;732.67;;;670.30;;
49252;SDS011;35103;47.952;-1.502;2022-10-26T13:42:25;657.75;;;604.58;;
49252;SDS011;35103;47.952;-1.502;2022-10-26T13:44:58;664.60;;;611.38;;
49252;SDS011;35103;47.952;-1.502;2022-10-26T13:50:24;714.78;;;654.40;;
49252;SDS011;35103;47.952;-1.502;2022-10-26T13:52:53;685.22;;;629.65;;
49252;SDS011;35103;47.952;-1.502;2022-10-26T13:55:37;759.50;;;691.90;;
49252;SDS011;35103;47.952;-1.502;2022-10-26T14:01:11;683.70;;;629.17;;
49252;SDS011;35103;47.952;-1.502;2022-10-26T14:03:39;739.03;;;679.03;;
49252;SDS011;35103;47.952;-1.502;2022-10-26T14:08:46;731.25;;;668.47;;
49252;SDS011;35103;47.952;-1.502;2022-10-26T14:11:13;761.65;;;696.28;;
49252;SDS011;35103;47.952;-1.502;2022-10-26T14:13:45;767.53;;;702.45;;
49252;SDS011;35103;47.952;-1.502;2022-10-26T14:16:13;759.60;;;695.13;;
49252;SDS011;35103;47.952;-1.502;2022-10-26T14:18:41;774.35;;;707.75;;
49252;SDS011;35103;47.952;-1.502;2022-10-26T14:21:11;763.33;;;697.85;;
49252;SDS011;35103;47.952;-1.502;2022-10-26T14:26:40;716.85;;;657.25;;
49252;SDS011;35103;47.952;-1.502;2022-10-26T14:29:19;761.25;;;698.47;;
49252;SDS011;35103;47.952;-1.502;2022-10-26T14:31:46;748.20;;;685.70;;
49252;SDS011;35103;47.952;-1.502;2022-10-26T14:34:12;763.10;;;699.40;;
49252;SDS011;35103;47.952;-1.502;2022-10-26T14:39:07;796.47;;;729.42;;
49252;SDS011;35103;47.952;-1.502;2022-10-26T14:41:42;810.03;;;742.55;;
49252;SDS011;35103;47.952;-1.502;2022-10-26T14:44:13;820.28;;;748.90;;
49252;SDS011;35103;47.952;-1.502;2022-10-26T14:46:42;925.83;;;834.13;;
49252;SDS011;35103;47.952;-1.502;2022-10-26T14:49:12;820.97;;;752.22;;
49252;SDS011;35103;47.952;-1.502;2022-10-26T14:51:44;893.13;;;810.40;;
49252;SDS011;35103;47.952;-1.502;2022-10-26T14:54:20;862.15;;;783.10;;
49252;SDS011;35103;47.952;-1.502;2022-10-26T14:56:50;880.85;;;794.67;;
49252;SDS011;35103;47.952;-1.502;2022-10-26T14:59:26;885.42;;;805.80;;
49252;SDS011;35103;47.952;-1.502;2022-10-26T15:04:33;928.25;;;841.42;;
49252;SDS011;35103;47.952;-1.502;2022-10-26T15:07:08;845.65;;;765.45;;
49252;SDS011;35103;47.952;-1.502;2022-10-26T15:09:41;867.85;;;783.42;;
49252;SDS011;35103;47.952;-1.502;2022-10-26T15:14:49;838.22;;;754.30;;
49252;SDS011;35103;47.952;-1.502;2022-10-26T15:17:19;881.22;;;792.03;;
49252;SDS011;35103;47.952;-1.502;2022-10-26T15:19:51;861.72;;;777.05;;
49252;SDS011;35103;47.952;-1.502;2022-10-26T15:22:23;861.63;;;770.72;;
49252;SDS011;35103;47.952;-1.502;2022-10-26T15:24:51;873.72;;;786.70;;
49252;SDS011;35103;47.952;-1.502;2022-10-26T15:27:20;768.58;;;698.40;;
49252;SDS011;35103;47.952;-1.502;2022-10-26T15:29:50;711.17;;;647.25;;
49252;SDS011;35103;47.952;-1.502;2022-10-26T15:32:27;782.13;;;710.22;;
49252;SDS011;35103;47.952;-1.502;2022-10-26T15:37:45;713.95;;;650.83;;
49252;SDS011;35103;47.952;-1.502;2022-10-26T15:40:11;732.30;;;668.40;;
49252;SDS011;35103;47.952;-1.502;2022-10-26T15:42:38;749.95;;;685.22;;
49252;SDS011;35103;47.952;-1.502;2022-10-26T15:45:26;756.15;;;689.35;;
49252;SDS011;35103;47.952;-1.502;2022-10-26T15:47:55;746.03;;;681.15;;
49252;SDS011;35103;47.952;-1.502;2022-10-26T15:50:23;735.55;;;668.97;;
49252;SDS011;35103;47.952;-1.502;2022-10-26T15:52:55;762.88;;;696.58;;
49252;SDS011;35103;47.952;-1.502;2022-10-26T15:55:30;682.92;;;623.72;;
49252;SDS011;35103;47.952;-1.502;2022-10-26T15:57:55;782.50;;;712.45;;
49252;SDS011;35103;47.952;-1.502;2022-10-26T16:00:21;805.35;;;732.90;;
49252;SDS011;35103;47.952;-1.502;2022-10-26T16:02:47;711.40;;;650.53;;
49252;SDS011;35103;47.952;-1.502;2022-10-26T16:05:13;692.33;;;632.20;;
49252;SDS011;35103;47.952;-1.502;2022-10-26T16:07:40;662.33;;;606.72;;
49252;SDS011;35103;47.952;-1.502;2022-10-26T16:10:07;721.50;;;657.20;;
49252;SDS011;35103;47.952;-1.502;2022-10-26T16:12:37;747.30;;;681.03;;
49252;SDS011;35103;47.952;-1.502;2022-10-26T16:15:03;701.90;;;641.72;;
49252;SDS011;35103;47.952;-1.502;2022-10-26T16:17:29;704.78;;;645.60;;
49252;SDS011;35103;47.952;-1.502;2022-10-26T16:19:54;680.60;;;621.95;;
49252;SDS011;35103;47.952;-1.502;2022-10-26T16:22:20;704.78;;;644.47;;
49252;SDS011;35103;47.952;-1.502;2022-10-26T16:24:46;740.70;;;677.45;;